sensor_id;sensor_type;location;lat;lon;timestamp;P1;durP1;ratioP1;P2;durP2;ratioP2
67554;SDS011;54385;53.516;49.456;2023-05-14T00:00:44;9.75;;;5.30;;
67554;SDS011;54385;53.516;49.456;2023-05-14T00:03:12;13.40;;;5.18;;
67554;SDS011;54385;53.516;49.456;2023-05-14T00:05:39;9.50;;;5.22;;
67554;SDS011;54385;53.516;49.456;2023-05-14T00:08:05;7.80;;;4.25;;
67554;SDS011;54385;53.516;49.456;2023-05-14T00:10:32;11.88;;;3.72;;
67554;SDS011;54385;53.516;49.456;2023-05-14T00:12:59;13.32;;;7.40;;
67554;SDS011;54385;53.516;49.456;2023-05-14T00:15:26;22.15;;;11.40;;
67554;SDS011;54385;53.516;49.456;2023-05-14T00:17:53;17.38;;;8.45;;
67554;SDS011;54385;53.516;49.456;2023-05-14T00:20:19;30.23;;;14.50;;
67554;SDS011;54385;53.516;49.456;2023-05-14T00:22:46;32.30;;;16.50;;
67554;SDS011;54385;53.516;49.456;2023-05-14T00:25:13;30.10;;;17.38;;
67554;SDS011;54385;53.516;49.456;2023-05-14T00:27:39;19.10;;;10.48;;
67554;SDS011;54385;53.516;49.456;2023-05-14T00:30:06;24.50;;;13.07;;
67554;SDS011;54385;53.516;49.456;2023-05-14T00:32:33;28.27;;;13.95;;
67554;SDS011;54385;53.516;49.456;2023-05-14T00:34:59;24.55;;;13.35;;
67554;SDS011;54385;53.516;49.456;2023-05-14T00:37:27;22.90;;;11.50;;
67554;SDS011;54385;53.516;49.456;2023-05-14T00:39:54;20.98;;;11.07;;
67554;SDS011;54385;53.516;49.456;2023-05-14T00:42:20;17.83;;;10.38;;
67554;SDS011;54385;53.516;49.456;2023-05-14T00:44:47;24.60;;;11.77;;
67554;SDS011;54385;53.516;49.456;2023-05-14T00:47:13;23.20;;;13.98;;
67554;SDS011;54385;53.516;49.456;2023-05-14T00:49:40;20.95;;;12.90;;
67554;SDS011;54385;53.516;49.456;2023-05-14T00:52:07;22.73;;;12.88;;
67554;SDS011;54385;53.516;49.456;2023-05-14T00:54:35;25.95;;;12.13;;
67554;SDS011;54385;53.516;49.456;2023-05-14T00:57:02;20.65;;;10.73;;
67554;SDS011;54385;53.516;49.456;2023-05-14T00:59:29;16.17;;;9.32;;
67554;SDS011;54385;53.516;49.456;2023-05-14T01:01:56;16.55;;;9.40;;
67554;SDS011;54385;53.516;49.456;2023-05-14T01:04:22;20.38;;;9.35;;
67554;SDS011;54385;53.516;49.456;2023-05-14T01:06:54;13.57;;;8.00;;
67554;SDS011;54385;53.516;49.456;2023-05-14T01:09:52;15.80;;;9.13;;
67554;SDS011;54385;53.516;49.456;2023-05-14T01:15:09;15.07;;;8.40;;
67554;SDS011;54385;53.516;49.456;2023-05-14T01:17:40;16.50;;;8.40;;
67554;SDS011;54385;53.516;49.456;2023-05-14T01:20:10;16.17;;;8.38;;
67554;SDS011;54385;53.516;49.456;2023-05-14T01:22:37;14.05;;;7.70;;
67554;SDS011;54385;53.516;49.456;2023-05-14T01:25:04;20.95;;;11.32;;
67554;SDS011;54385;53.516;49.456;2023-05-14T01:27:47;18.35;;;10.15;;
67554;SDS011;54385;53.516;49.456;2023-05-14T01:32:50;19.33;;;11.13;;
67554;SDS011;54385;53.516;49.456;2023-05-14T01:35:21;22.55;;;9.60;;
67554;SDS011;54385;53.516;49.456;2023-05-14T01:37:59;21.33;;;11.07;;
67554;SDS011;54385;53.516;49.456;2023-05-14T01:40:28;21.17;;;11.63;;
67554;SDS011;54385;53.516;49.456;2023-05-14T01:42:58;25.23;;;10.70;;
67554;SDS011;54385;53.516;49.456;2023-05-14T01:45:25;21.52;;;11.25;;
67554;SDS011;54385;53.516;49.456;2023-05-14T01:47:52;26.02;;;10.82;;
67554;SDS011;54385;53.516;49.456;2023-05-14T01:50:19;27.05;;;9.77;;
67554;SDS011;54385;53.516;49.456;2023-05-14T01:52:52;20.83;;;11.27;;
67554;SDS011;54385;53.516;49.456;2023-05-14T01:55:21;25.23;;;10.93;;
67554;SDS011;54385;53.516;49.456;2023-05-14T01:57:52;27.20;;;10.82;;
67554;SDS011;54385;53.516;49.456;2023-05-14T02:00:19;17.55;;;9.43;;
67554;SDS011;54385;53.516;49.456;2023-05-14T02:02:48;20.65;;;10.27;;
67554;SDS011;54385;53.516;49.456;2023-05-14T02:05:15;26.27;;;11.23;;
67554;SDS011;54385;53.516;49.456;2023-05-14T02:07:42;21.88;;;10.77;;
67554;SDS011;54385;53.516;49.456;2023-05-14T02:10:09;17.70;;;10.25;;
67554;SDS011;54385;53.516;49.456;2023-05-14T02:12:36;18.15;;;9.80;;
67554;SDS011;54385;53.516;49.456;2023-05-14T02:15:03;16.00;;;9.18;;
67554;SDS011;54385;53.516;49.456;2023-05-14T02:17:33;16.70;;;8.65;;
67554;SDS011;54385;53.516;49.456;2023-05-14T02:20:01;33.25;;;8.57;;
67554;SDS011;54385;53.516;49.456;2023-05-14T02:22:28;25.30;;;7.38;;
67554;SDS011;54385;53.516;49.456;2023-05-14T02:24:55;12.35;;;6.20;;
67554;SDS011;54385;53.516;49.456;2023-05-14T02:27:22;14.60;;;6.93;;
67554;SDS011;54385;53.516;49.456;2023-05-14T02:29:48;46.30;;;18.05;;
67554;SDS011;54385;53.516;49.456;2023-05-14T02:32:15;34.13;;;13.13;;
67554;SDS011;54385;53.516;49.456;2023-05-14T02:34:42;25.08;;;10.30;;
67554;SDS011;54385;53.516;49.456;2023-05-14T02:37:08;18.13;;;7.93;;
67554;SDS011;54385;53.516;49.456;2023-05-14T02:39:35;18.17;;;8.85;;
67554;SDS011;54385;53.516;49.456;2023-05-14T02:42:02;25.33;;;10.57;;
67554;SDS011;54385;53.516;49.456;2023-05-14T02:44:29;18.08;;;9.35;;
67554;SDS011;54385;53.516;49.456;2023-05-14T02:46:56;20.58;;;10.45;;
67554;SDS011;54385;53.516;49.456;2023-05-14T02:49:23;22.23;;;10.20;;
67554;SDS011;54385;53.516;49.456;2023-05-14T02:51:50;23.20;;;9.57;;
67554;SDS011;54385;53.516;49.456;2023-05-14T02:54:19;18.45;;;9.50;;
67554;SDS011;54385;53.516;49.456;2023-05-14T02:56:45;27.52;;;11.27;;
67554;SDS011;54385;53.516;49.456;2023-05-14T02:59:12;31.38;;;12.43;;
67554;SDS011;54385;53.516;49.456;2023-05-14T03:01:39;23.17;;;9.10;;
67554;SDS011;54385;53.516;49.456;2023-05-14T03:04:06;17.35;;;9.23;;
67554;SDS011;54385;53.516;49.456;2023-05-14T03:06:32;25.98;;;8.60;;
67554;SDS011;54385;53.516;49.456;2023-05-14T03:08:59;20.48;;;8.15;;
67554;SDS011;54385;53.516;49.456;2023-05-14T03:11:26;18.83;;;8.13;;
67554;SDS011;54385;53.516;49.456;2023-05-14T03:13:53;17.75;;;6.93;;
67554;SDS011;54385;53.516;49.456;2023-05-14T03:16:20;23.70;;;8.43;;
67554;SDS011;54385;53.516;49.456;2023-05-14T03:18:46;20.20;;;9.35;;
67554;SDS011;54385;53.516;49.456;2023-05-14T03:21:13;19.00;;;8.30;;
67554;SDS011;54385;53.516;49.456;2023-05-14T03:23:40;10.85;;;5.68;;
67554;SDS011;54385;53.516;49.456;2023-05-14T03:26:07;10.35;;;5.07;;
67554;SDS011;54385;53.516;49.456;2023-05-14T03:28:33;7.45;;;4.25;;
67554;SDS011;54385;53.516;49.456;2023-05-14T03:31:00;23.48;;;7.63;;
67554;SDS011;54385;53.516;49.456;2023-05-14T03:33:27;18.35;;;7.35;;
67554;SDS011;54385;53.516;49.456;2023-05-14T03:35:54;9.23;;;4.93;;
67554;SDS011;54385;53.516;49.456;2023-05-14T03:38:21;6.97;;;3.67;;
67554;SDS011;54385;53.516;49.456;2023-05-14T03:40:47;8.23;;;3.20;;
67554;SDS011;54385;53.516;49.456;2023-05-14T03:43:14;5.68;;;3.22;;
67554;SDS011;54385;53.516;49.456;2023-05-14T03:45:43;4.95;;;2.85;;
67554;SDS011;54385;53.516;49.456;2023-05-14T03:48:10;3.35;;;2.80;;
67554;SDS011;54385;53.516;49.456;2023-05-14T03:50:37;7.35;;;3.40;;
67554;SDS011;54385;53.516;49.456;2023-05-14T03:53:04;5.53;;;2.95;;
67554;SDS011;54385;53.516;49.456;2023-05-14T03:55:31;3.60;;;2.67;;
67554;SDS011;54385;53.516;49.456;2023-05-14T03:57:57;5.90;;;2.92;;
67554;SDS011;54385;53.516;49.456;2023-05-14T04:00:24;3.92;;;3.10;;
67554;SDS011;54385;53.516;49.456;2023-05-14T04:02:51;6.07;;;3.05;;
67554;SDS011;54385;53.516;49.456;2023-05-14T04:05:18;5.30;;;3.22;;
67554;SDS011;54385;53.516;49.456;2023-05-14T04:07:45;5.40;;;3.05;;
67554;SDS011;54385;53.516;49.456;2023-05-14T04:10:12;5.53;;;2.83;;
67554;SDS011;54385;53.516;49.456;2023-05-14T04:12:38;2.85;;;2.40;;
67554;SDS011;54385;53.516;49.456;2023-05-14T04:15:05;6.07;;;2.40;;
67554;SDS011;54385;53.516;49.456;2023-05-14T04:17:33;2.60;;;2.40;;
67554;SDS011;54385;53.516;49.456;2023-05-14T04:19:59;5.93;;;2.38;;
67554;SDS011;54385;53.516;49.456;2023-05-14T04:22:26;3.35;;;2.50;;
67554;SDS011;54385;53.516;49.456;2023-05-14T04:24:53;4.57;;;2.40;;
67554;SDS011;54385;53.516;49.456;2023-05-14T04:27:19;3.10;;;2.15;;
67554;SDS011;54385;53.516;49.456;2023-05-14T04:29:47;3.95;;;2.63;;
67554;SDS011;54385;53.516;49.456;2023-05-14T04:32:15;3.72;;;2.35;;
67554;SDS011;54385;53.516;49.456;2023-05-14T04:34:42;2.63;;;2.33;;
67554;SDS011;54385;53.516;49.456;2023-05-14T04:37:08;4.43;;;2.35;;
67554;SDS011;54385;53.516;49.456;2023-05-14T04:39:35;6.43;;;1.98;;
67554;SDS011;54385;53.516;49.456;2023-05-14T04:42:01;2.80;;;2.25;;
67554;SDS011;54385;53.516;49.456;2023-05-14T04:44:28;3.90;;;2.58;;
67554;SDS011;54385;53.516;49.456;2023-05-14T04:46:54;4.90;;;2.33;;
67554;SDS011;54385;53.516;49.456;2023-05-14T04:49:21;2.05;;;1.65;;
67554;SDS011;54385;53.516;49.456;2023-05-14T04:51:47;3.03;;;1.83;;
67554;SDS011;54385;53.516;49.456;2023-05-14T04:54:14;3.08;;;2.22;;
67554;SDS011;54385;53.516;49.456;2023-05-14T04:56:40;2.55;;;2.20;;
67554;SDS011;54385;53.516;49.456;2023-05-14T04:59:06;3.15;;;2.28;;
67554;SDS011;54385;53.516;49.456;2023-05-14T05:01:33;3.90;;;2.22;;
67554;SDS011;54385;53.516;49.456;2023-05-14T05:03:59;2.80;;;1.80;;
67554;SDS011;54385;53.516;49.456;2023-05-14T05:06:26;2.45;;;2.00;;
67554;SDS011;54385;53.516;49.456;2023-05-14T05:09:04;4.53;;;2.25;;
67554;SDS011;54385;53.516;49.456;2023-05-14T05:11:30;2.63;;;1.80;;
67554;SDS011;54385;53.516;49.456;2023-05-14T05:13:57;3.60;;;1.98;;
67554;SDS011;54385;53.516;49.456;2023-05-14T05:16:23;2.88;;;2.05;;
67554;SDS011;54385;53.516;49.456;2023-05-14T05:18:50;4.85;;;2.00;;
67554;SDS011;54385;53.516;49.456;2023-05-14T05:21:16;3.53;;;1.92;;
67554;SDS011;54385;53.516;49.456;2023-05-14T05:23:43;5.03;;;2.38;;
67554;SDS011;54385;53.516;49.456;2023-05-14T05:26:09;2.30;;;2.08;;
67554;SDS011;54385;53.516;49.456;2023-05-14T05:28:36;4.35;;;2.30;;
67554;SDS011;54385;53.516;49.456;2023-05-14T05:31:02;6.13;;;2.40;;
67554;SDS011;54385;53.516;49.456;2023-05-14T05:33:29;4.68;;;2.58;;
67554;SDS011;54385;53.516;49.456;2023-05-14T05:35:55;3.20;;;2.45;;
67554;SDS011;54385;53.516;49.456;2023-05-14T05:38:22;3.33;;;2.08;;
67554;SDS011;54385;53.516;49.456;2023-05-14T05:40:48;3.75;;;2.22;;
67554;SDS011;54385;53.516;49.456;2023-05-14T05:43:14;7.05;;;2.83;;
67554;SDS011;54385;53.516;49.456;2023-05-14T05:45:41;4.65;;;2.88;;
67554;SDS011;54385;53.516;49.456;2023-05-14T05:48:07;4.07;;;2.63;;
67554;SDS011;54385;53.516;49.456;2023-05-14T05:50:34;2.85;;;2.10;;
67554;SDS011;54385;53.516;49.456;2023-05-14T05:53:00;5.20;;;2.20;;
67554;SDS011;54385;53.516;49.456;2023-05-14T05:55:29;7.43;;;2.63;;
67554;SDS011;54385;53.516;49.456;2023-05-14T05:58:01;3.25;;;2.58;;
67554;SDS011;54385;53.516;49.456;2023-05-14T06:00:27;4.10;;;2.42;;
67554;SDS011;54385;53.516;49.456;2023-05-14T06:02:54;3.83;;;2.60;;
67554;SDS011;54385;53.516;49.456;2023-05-14T06:05:21;7.22;;;2.72;;
67554;SDS011;54385;53.516;49.456;2023-05-14T06:07:47;3.97;;;2.67;;
67554;SDS011;54385;53.516;49.456;2023-05-14T06:10:17;4.65;;;2.75;;
67554;SDS011;54385;53.516;49.456;2023-05-14T06:12:44;8.13;;;2.92;;
67554;SDS011;54385;53.516;49.456;2023-05-14T06:15:11;4.25;;;2.70;;
67554;SDS011;54385;53.516;49.456;2023-05-14T06:17:37;4.35;;;2.70;;
67554;SDS011;54385;53.516;49.456;2023-05-14T06:20:04;5.30;;;2.55;;
67554;SDS011;54385;53.516;49.456;2023-05-14T06:22:32;3.80;;;2.60;;
67554;SDS011;54385;53.516;49.456;2023-05-14T06:25:00;5.55;;;2.35;;
67554;SDS011;54385;53.516;49.456;2023-05-14T06:27:26;5.68;;;3.75;;
67554;SDS011;54385;53.516;49.456;2023-05-14T06:29:52;6.80;;;3.38;;
67554;SDS011;54385;53.516;49.456;2023-05-14T06:32:19;5.95;;;2.20;;
67554;SDS011;54385;53.516;49.456;2023-05-14T06:34:45;5.55;;;2.45;;
67554;SDS011;54385;53.516;49.456;2023-05-14T06:37:12;4.20;;;2.40;;
67554;SDS011;54385;53.516;49.456;2023-05-14T06:39:39;5.55;;;2.30;;
67554;SDS011;54385;53.516;49.456;2023-05-14T06:42:08;3.83;;;2.33;;
67554;SDS011;54385;53.516;49.456;2023-05-14T06:44:35;5.13;;;2.42;;
67554;SDS011;54385;53.516;49.456;2023-05-14T06:47:01;7.38;;;2.92;;
67554;SDS011;54385;53.516;49.456;2023-05-14T06:49:28;7.85;;;2.92;;
67554;SDS011;54385;53.516;49.456;2023-05-14T06:51:54;4.85;;;3.20;;
67554;SDS011;54385;53.516;49.456;2023-05-14T06:54:21;4.05;;;2.63;;
67554;SDS011;54385;53.516;49.456;2023-05-14T06:56:47;10.98;;;3.88;;
67554;SDS011;54385;53.516;49.456;2023-05-14T06:59:14;4.78;;;2.95;;
67554;SDS011;54385;53.516;49.456;2023-05-14T07:01:40;4.03;;;2.40;;
67554;SDS011;54385;53.516;49.456;2023-05-14T07:04:07;4.05;;;2.97;;
67554;SDS011;54385;53.516;49.456;2023-05-14T07:06:33;7.07;;;2.90;;
67554;SDS011;54385;53.516;49.456;2023-05-14T07:09:00;5.10;;;2.92;;
67554;SDS011;54385;53.516;49.456;2023-05-14T07:11:27;7.75;;;3.30;;
67554;SDS011;54385;53.516;49.456;2023-05-14T07:13:53;4.28;;;3.22;;
67554;SDS011;54385;53.516;49.456;2023-05-14T07:16:19;5.18;;;3.10;;
67554;SDS011;54385;53.516;49.456;2023-05-14T07:18:46;6.70;;;4.03;;
67554;SDS011;54385;53.516;49.456;2023-05-14T07:21:12;5.30;;;3.53;;
67554;SDS011;54385;53.516;49.456;2023-05-14T07:23:40;7.47;;;3.80;;
67554;SDS011;54385;53.516;49.456;2023-05-14T07:26:06;5.88;;;3.42;;
67554;SDS011;54385;53.516;49.456;2023-05-14T07:28:33;5.43;;;3.35;;
67554;SDS011;54385;53.516;49.456;2023-05-14T07:31:00;3.22;;;2.70;;
67554;SDS011;54385;53.516;49.456;2023-05-14T07:33:26;5.15;;;2.45;;
67554;SDS011;54385;53.516;49.456;2023-05-14T07:35:52;2.75;;;2.33;;
67554;SDS011;54385;53.516;49.456;2023-05-14T07:38:19;3.33;;;1.83;;
67554;SDS011;54385;53.516;49.456;2023-05-14T07:40:46;3.45;;;2.17;;
67554;SDS011;54385;53.516;49.456;2023-05-14T07:43:12;3.03;;;2.00;;
67554;SDS011;54385;53.516;49.456;2023-05-14T07:45:39;3.47;;;2.30;;
67554;SDS011;54385;53.516;49.456;2023-05-14T07:48:05;10.90;;;2.55;;
67554;SDS011;54385;53.516;49.456;2023-05-14T07:50:32;4.38;;;2.65;;
67554;SDS011;54385;53.516;49.456;2023-05-14T07:53:02;5.45;;;2.25;;
67554;SDS011;54385;53.516;49.456;2023-05-14T07:55:28;2.42;;;2.10;;
67554;SDS011;54385;53.516;49.456;2023-05-14T07:57:55;3.05;;;2.58;;
67554;SDS011;54385;53.516;49.456;2023-05-14T08:00:21;5.30;;;2.70;;
67554;SDS011;54385;53.516;49.456;2023-05-14T08:02:48;3.97;;;2.47;;
67554;SDS011;54385;53.516;49.456;2023-05-14T08:05:14;3.22;;;2.53;;
67554;SDS011;54385;53.516;49.456;2023-05-14T08:07:41;5.00;;;2.72;;
67554;SDS011;54385;53.516;49.456;2023-05-14T08:10:08;4.90;;;3.08;;
67554;SDS011;54385;53.516;49.456;2023-05-14T08:12:35;3.38;;;2.40;;
67554;SDS011;54385;53.516;49.456;2023-05-14T08:15:04;3.60;;;2.90;;
67554;SDS011;54385;53.516;49.456;2023-05-14T08:17:34;4.15;;;2.80;;
67554;SDS011;54385;53.516;49.456;2023-05-14T08:20:00;3.78;;;2.83;;
67554;SDS011;54385;53.516;49.456;2023-05-14T08:22:27;4.15;;;2.63;;
67554;SDS011;54385;53.516;49.456;2023-05-14T08:24:54;5.40;;;3.08;;
67554;SDS011;54385;53.516;49.456;2023-05-14T08:27:21;3.88;;;2.60;;
67554;SDS011;54385;53.516;49.456;2023-05-14T08:29:48;3.85;;;2.85;;
67554;SDS011;54385;53.516;49.456;2023-05-14T08:32:15;5.80;;;2.80;;
67554;SDS011;54385;53.516;49.456;2023-05-14T08:34:42;4.50;;;3.35;;
67554;SDS011;54385;53.516;49.456;2023-05-14T08:37:08;4.30;;;3.50;;
67554;SDS011;54385;53.516;49.456;2023-05-14T08:39:35;4.25;;;3.55;;
67554;SDS011;54385;53.516;49.456;2023-05-14T08:42:02;6.88;;;3.80;;
67554;SDS011;54385;53.516;49.456;2023-05-14T08:44:32;4.32;;;3.25;;
67554;SDS011;54385;53.516;49.456;2023-05-14T08:47:04;3.40;;;3.00;;
67554;SDS011;54385;53.516;49.456;2023-05-14T08:52:07;4.57;;;3.08;;
67554;SDS011;54385;53.516;49.456;2023-05-14T08:54:34;4.85;;;3.97;;
67554;SDS011;54385;53.516;49.456;2023-05-14T08:57:04;5.03;;;3.95;;
67554;SDS011;54385;53.516;49.456;2023-05-14T08:59:34;5.13;;;3.38;;
67554;SDS011;54385;53.516;49.456;2023-05-14T09:02:01;4.43;;;3.80;;
67554;SDS011;54385;53.516;49.456;2023-05-14T09:04:31;5.07;;;3.38;;
67554;SDS011;54385;53.516;49.456;2023-05-14T09:06:58;5.30;;;3.95;;
67554;SDS011;54385;53.516;49.456;2023-05-14T09:09:27;5.45;;;3.58;;
67554;SDS011;54385;53.516;49.456;2023-05-14T09:11:54;6.97;;;4.45;;
67554;SDS011;54385;53.516;49.456;2023-05-14T09:14:21;4.70;;;4.25;;
67554;SDS011;54385;53.516;49.456;2023-05-14T09:16:49;6.95;;;4.55;;
67554;SDS011;54385;53.516;49.456;2023-05-14T09:19:19;4.50;;;3.95;;
67554;SDS011;54385;53.516;49.456;2023-05-14T09:21:47;4.03;;;3.45;;
67554;SDS011;54385;53.516;49.456;2023-05-14T09:24:19;4.43;;;3.00;;
67554;SDS011;54385;53.516;49.456;2023-05-14T09:26:54;5.55;;;3.40;;
67554;SDS011;54385;53.516;49.456;2023-05-14T09:29:25;4.18;;;3.17;;
67554;SDS011;54385;53.516;49.456;2023-05-14T09:31:54;6.40;;;4.00;;
67554;SDS011;54385;53.516;49.456;2023-05-14T09:34:25;8.13;;;3.47;;
67554;SDS011;54385;53.516;49.456;2023-05-14T09:36:56;3.65;;;2.20;;
67554;SDS011;54385;53.516;49.456;2023-05-14T09:39:24;5.75;;;2.88;;
67554;SDS011;54385;53.516;49.456;2023-05-14T09:41:51;4.65;;;3.53;;
67554;SDS011;54385;53.516;49.456;2023-05-14T09:44:18;8.63;;;3.80;;
67554;SDS011;54385;53.516;49.456;2023-05-14T09:46:45;13.30;;;4.25;;
67554;SDS011;54385;53.516;49.456;2023-05-14T09:49:12;9.32;;;4.05;;
67554;SDS011;54385;53.516;49.456;2023-05-14T09:51:39;11.75;;;4.30;;
67554;SDS011;54385;53.516;49.456;2023-05-14T09:54:06;8.65;;;3.47;;
67554;SDS011;54385;53.516;49.456;2023-05-14T09:56:34;6.43;;;2.95;;
67554;SDS011;54385;53.516;49.456;2023-05-14T09:59:02;10.02;;;3.35;;
67554;SDS011;54385;53.516;49.456;2023-05-14T10:01:29;10.93;;;2.70;;
67554;SDS011;54385;53.516;49.456;2023-05-14T10:03:56;19.00;;;3.92;;
67554;SDS011;54385;53.516;49.456;2023-05-14T10:06:23;6.85;;;3.88;;
67554;SDS011;54385;53.516;49.456;2023-05-14T10:08:53;20.48;;;4.03;;
67554;SDS011;54385;53.516;49.456;2023-05-14T10:11:32;11.77;;;4.05;;
67554;SDS011;54385;53.516;49.456;2023-05-14T10:14:04;14.88;;;3.33;;
67554;SDS011;54385;53.516;49.456;2023-05-14T10:16:45;6.03;;;1.90;;
67554;SDS011;54385;53.516;49.456;2023-05-14T10:19:16;8.65;;;3.00;;
67554;SDS011;54385;53.516;49.456;2023-05-14T10:21:51;7.40;;;3.03;;
67554;SDS011;54385;53.516;49.456;2023-05-14T10:24:21;8.18;;;2.90;;
67554;SDS011;54385;53.516;49.456;2023-05-14T10:26:49;7.53;;;3.67;;
67554;SDS011;54385;53.516;49.456;2023-05-14T10:29:16;8.93;;;4.20;;
67554;SDS011;54385;53.516;49.456;2023-05-14T10:37:11;11.50;;;4.03;;
67554;SDS011;54385;53.516;49.456;2023-05-14T10:39:44;7.00;;;3.88;;
67554;SDS011;54385;53.516;49.456;2023-05-14T10:42:22;7.20;;;3.55;;
67554;SDS011;54385;53.516;49.456;2023-05-14T10:44:58;6.32;;;3.70;;
67554;SDS011;54385;53.516;49.456;2023-05-14T10:47:27;7.38;;;3.28;;
67554;SDS011;54385;53.516;49.456;2023-05-14T10:49:55;6.00;;;3.80;;
67554;SDS011;54385;53.516;49.456;2023-05-14T10:52:23;8.18;;;3.95;;
67554;SDS011;54385;53.516;49.456;2023-05-14T10:54:54;9.88;;;4.75;;
67554;SDS011;54385;53.516;49.456;2023-05-14T10:57:24;5.78;;;3.13;;
67554;SDS011;54385;53.516;49.456;2023-05-14T10:59:57;6.65;;;3.83;;
67554;SDS011;54385;53.516;49.456;2023-05-14T11:02:26;7.65;;;3.80;;
67554;SDS011;54385;53.516;49.456;2023-05-14T11:05:02;5.03;;;2.92;;
67554;SDS011;54385;53.516;49.456;2023-05-14T11:10:03;6.03;;;3.45;;
67554;SDS011;54385;53.516;49.456;2023-05-14T11:12:31;6.20;;;3.47;;
67554;SDS011;54385;53.516;49.456;2023-05-14T11:14:59;2.88;;;2.22;;
67554;SDS011;54385;53.516;49.456;2023-05-14T11:17:28;3.95;;;2.00;;
67554;SDS011;54385;53.516;49.456;2023-05-14T11:19:56;6.55;;;3.10;;
67554;SDS011;54385;53.516;49.456;2023-05-14T11:22:23;4.65;;;2.80;;
67554;SDS011;54385;53.516;49.456;2023-05-14T11:24:50;3.85;;;2.47;;
67554;SDS011;54385;53.516;49.456;2023-05-14T11:27:17;4.55;;;2.70;;
67554;SDS011;54385;53.516;49.456;2023-05-14T11:29:45;6.18;;;3.70;;
67554;SDS011;54385;53.516;49.456;2023-05-14T11:32:13;5.07;;;3.92;;
67554;SDS011;54385;53.516;49.456;2023-05-14T11:34:41;4.30;;;3.17;;
67554;SDS011;54385;53.516;49.456;2023-05-14T11:37:09;3.85;;;3.22;;
67554;SDS011;54385;53.516;49.456;2023-05-14T11:39:37;2.90;;;2.55;;
67554;SDS011;54385;53.516;49.456;2023-05-14T11:42:08;3.50;;;2.50;;
67554;SDS011;54385;53.516;49.456;2023-05-14T11:44:40;2.22;;;1.95;;
67554;SDS011;54385;53.516;49.456;2023-05-14T11:47:09;1.85;;;1.60;;
67554;SDS011;54385;53.516;49.456;2023-05-14T11:49:36;3.85;;;1.90;;
67554;SDS011;54385;53.516;49.456;2023-05-14T11:52:03;3.30;;;1.80;;
67554;SDS011;54385;53.516;49.456;2023-05-14T11:54:31;2.05;;;1.50;;
67554;SDS011;54385;53.516;49.456;2023-05-14T11:57:01;1.98;;;1.40;;
67554;SDS011;54385;53.516;49.456;2023-05-14T11:59:34;1.30;;;1.20;;
67554;SDS011;54385;53.516;49.456;2023-05-14T12:02:01;1.50;;;1.40;;
67554;SDS011;54385;53.516;49.456;2023-05-14T12:04:29;1.73;;;1.25;;
67554;SDS011;54385;53.516;49.456;2023-05-14T12:06:57;1.50;;;1.17;;
67554;SDS011;54385;53.516;49.456;2023-05-14T12:09:25;4.07;;;1.48;;
67554;SDS011;54385;53.516;49.456;2023-05-14T12:11:51;2.70;;;1.38;;
67554;SDS011;54385;53.516;49.456;2023-05-14T12:14:18;2.20;;;1.23;;
67554;SDS011;54385;53.516;49.456;2023-05-14T12:16:46;3.13;;;1.38;;
67554;SDS011;54385;53.516;49.456;2023-05-14T12:19:14;3.95;;;1.25;;
67554;SDS011;54385;53.516;49.456;2023-05-14T12:21:42;2.67;;;0.93;;
67554;SDS011;54385;53.516;49.456;2023-05-14T12:24:12;1.75;;;1.10;;
67554;SDS011;54385;53.516;49.456;2023-05-14T12:26:44;1.23;;;1.00;;
67554;SDS011;54385;53.516;49.456;2023-05-14T12:29:12;1.00;;;0.90;;
67554;SDS011;54385;53.516;49.456;2023-05-14T12:31:46;2.22;;;1.20;;
67554;SDS011;54385;53.516;49.456;2023-05-14T12:34:15;6.22;;;5.55;;
67554;SDS011;54385;53.516;49.456;2023-05-14T12:36:42;1.73;;;1.15;;
67554;SDS011;54385;53.516;49.456;2023-05-14T12:39:09;1.42;;;1.10;;
67554;SDS011;54385;53.516;49.456;2023-05-14T12:41:36;1.35;;;1.10;;
67554;SDS011;54385;53.516;49.456;2023-05-14T12:44:03;1.90;;;1.23;;
67554;SDS011;54385;53.516;49.456;2023-05-14T12:46:30;1.67;;;1.33;;
67554;SDS011;54385;53.516;49.456;2023-05-14T12:48:57;2.05;;;1.02;;
67554;SDS011;54385;53.516;49.456;2023-05-14T12:51:23;3.05;;;1.02;;
67554;SDS011;54385;53.516;49.456;2023-05-14T12:53:50;2.05;;;1.10;;
67554;SDS011;54385;53.516;49.456;2023-05-14T12:56:18;1.48;;;1.08;;
67554;SDS011;54385;53.516;49.456;2023-05-14T12:58:46;1.10;;;1.00;;
67554;SDS011;54385;53.516;49.456;2023-05-14T13:01:12;1.60;;;1.05;;
67554;SDS011;54385;53.516;49.456;2023-05-14T13:03:39;1.77;;;1.20;;
67554;SDS011;54385;53.516;49.456;2023-05-14T13:06:06;1.50;;;1.40;;
67554;SDS011;54385;53.516;49.456;2023-05-14T13:08:33;1.63;;;1.30;;
67554;SDS011;54385;53.516;49.456;2023-05-14T13:11:00;1.67;;;1.20;;
67554;SDS011;54385;53.516;49.456;2023-05-14T13:13:26;1.60;;;1.30;;
67554;SDS011;54385;53.516;49.456;2023-05-14T13:15:53;1.70;;;1.02;;
67554;SDS011;54385;53.516;49.456;2023-05-14T13:18:20;1.38;;;1.20;;
67554;SDS011;54385;53.516;49.456;2023-05-14T13:20:46;2.58;;;1.67;;
67554;SDS011;54385;53.516;49.456;2023-05-14T13:23:13;2.10;;;1.40;;
67554;SDS011;54385;53.516;49.456;2023-05-14T13:25:40;3.03;;;2.20;;
67554;SDS011;54385;53.516;49.456;2023-05-14T13:28:07;3.15;;;1.90;;
67554;SDS011;54385;53.516;49.456;2023-05-14T13:30:33;2.35;;;1.85;;
67554;SDS011;54385;53.516;49.456;2023-05-14T13:33:00;5.57;;;1.73;;
67554;SDS011;54385;53.516;49.456;2023-05-14T13:35:26;2.30;;;1.67;;
67554;SDS011;54385;53.516;49.456;2023-05-14T13:37:52;2.03;;;1.45;;
67554;SDS011;54385;53.516;49.456;2023-05-14T13:40:19;3.80;;;2.28;;
67554;SDS011;54385;53.516;49.456;2023-05-14T13:42:45;3.45;;;2.20;;
67554;SDS011;54385;53.516;49.456;2023-05-14T13:45:12;3.38;;;2.30;;
67554;SDS011;54385;53.516;49.456;2023-05-14T13:47:38;5.45;;;2.50;;
67554;SDS011;54385;53.516;49.456;2023-05-14T13:50:05;6.88;;;2.20;;
67554;SDS011;54385;53.516;49.456;2023-05-14T13:52:32;5.50;;;2.00;;
67554;SDS011;54385;53.516;49.456;2023-05-14T13:55:03;3.30;;;1.83;;
67554;SDS011;54385;53.516;49.456;2023-05-14T13:57:30;4.35;;;2.17;;
67554;SDS011;54385;53.516;49.456;2023-05-14T13:59:57;3.92;;;1.83;;
67554;SDS011;54385;53.516;49.456;2023-05-14T14:02:27;3.03;;;1.67;;
67554;SDS011;54385;53.516;49.456;2023-05-14T14:04:54;2.92;;;1.50;;
67554;SDS011;54385;53.516;49.456;2023-05-14T14:07:23;2.55;;;1.60;;
67554;SDS011;54385;53.516;49.456;2023-05-14T14:09:50;3.10;;;1.75;;
67554;SDS011;54385;53.516;49.456;2023-05-14T14:12:16;2.72;;;1.58;;
67554;SDS011;54385;53.516;49.456;2023-05-14T14:14:43;2.88;;;1.35;;
67554;SDS011;54385;53.516;49.456;2023-05-14T14:17:09;4.53;;;1.88;;
67554;SDS011;54385;53.516;49.456;2023-05-14T14:19:36;4.90;;;2.00;;
67554;SDS011;54385;53.516;49.456;2023-05-14T14:22:02;2.97;;;1.77;;
67554;SDS011;54385;53.516;49.456;2023-05-14T14:24:29;3.45;;;2.00;;
67554;SDS011;54385;53.516;49.456;2023-05-14T14:26:56;2.72;;;1.90;;
67554;SDS011;54385;53.516;49.456;2023-05-14T14:29:23;2.75;;;1.58;;
67554;SDS011;54385;53.516;49.456;2023-05-14T14:31:49;2.75;;;1.67;;
67554;SDS011;54385;53.516;49.456;2023-05-14T14:34:16;1.42;;;1.30;;
67554;SDS011;54385;53.516;49.456;2023-05-14T14:36:42;1.75;;;1.10;;
67554;SDS011;54385;53.516;49.456;2023-05-14T14:39:09;1.60;;;1.40;;
67554;SDS011;54385;53.516;49.456;2023-05-14T14:41:35;1.40;;;1.17;;
67554;SDS011;54385;53.516;49.456;2023-05-14T14:44:02;2.78;;;1.27;;
67554;SDS011;54385;53.516;49.456;2023-05-14T14:46:28;2.35;;;1.27;;
67554;SDS011;54385;53.516;49.456;2023-05-14T14:48:55;2.95;;;1.50;;